sim
Sign-in with your pilot id or email,
or register
Callsign
Passwort

Schedule Details

Flight Number: DLH810 (2)
Departure: Frankfurt Airport (EDDF) at 08:25
Arrival: Gothenburg Landvetter Airport (ESGG) at 10:05
Route: Lufthansa Passenger Schedule. Enter filed route here before submitting Pirep.

Weather Information
Getting current METAR information for EDDF 200320Z VRB02KT CAVOK 03/02 Q1016 NOSIG
Getting current METAR information for ESGG 200320Z 14009KT 9999 SCT015 BKN033 05/04 Q1014

Schedule Frequency

Route Map